CheckWX is a tool to help pilots better visualize weather data.  It is not intended as a substitute for an official pre-flight weather briefing.

00:46:08 UTC

EGDR METAR
RNAS Culdrose Airport
Helston, United Kingdom
Current

56 mins ago

EGDR 262350Z 01004KT CAVOK 05/04 Q1035 BLU
Observed
Mar-26 @ 23:50 UTC
Wind
  • 010° at 4 KTS
Visibility
10,000+ meters
Flight Rules
VFR
Cloud Levels
  • Clear skies
Temperature
C / 41°F
Dewpoint
C / 39°F
Humidity
93%
Altimeter
30.56" Hg
Pressure
1034.91 hPa
Previous

2 hours ago

EGDR 262250Z 36006KT CAVOK 05/03 Q1035 BLU
Observed
Mar-26 @ 22:50 UTC
Wind
  • 360° at 6 KTS
Visibility
10,000+ meters
Flight Rules
VFR
Cloud Levels
  • Clear skies
Temperature
C / 41°F
Dewpoint
C / 37°F
Humidity
87%
Altimeter
30.56" Hg
Pressure
1034.91 hPa
Previous

2 hours ago

EGDR 262221Z 36004KT CAVOK 05/03 Q1035 BLU NOSIG
Observed
Mar-26 @ 22:21 UTC
Wind
  • 360° at 4 KTS
Visibility
10,000+ meters
Flight Rules
VFR
Cloud Levels
  • Clear skies
Temperature
C / 41°F
Dewpoint
C / 37°F
Humidity
87%
Altimeter
30.56" Hg
Pressure
1034.91 hPa